Time;durP1;ratioP1;P1;durP2;ratioP2;P2;SDS_P1;SDS_P2;PMS_P1;PMS_P2;Temp;Humidity;BMP_temperature;BMP_pressure;BME280_temperature;BME280_humidity;BME280_pressure;Samples;Min_cycle;Max_cycle;Signal;HPM_P1;HPM_P2
2023/05/13 00:01:30;;;;;;;4.93;4.43;;;;;10.20;96277.00;;;;8243800;28;20215;-76
2023/05/13 00:05:35;;;;;;;5.38;4.40;;;;;10.10;96284.00;;;;8224508;28;20231;-75
2023/05/13 00:09:41;;;;;;;5.72;4.47;;;;;10.10;96272.00;;;;8238596;28;20619;-74
2023/05/13 00:13:47;;;;;;;7.20;4.85;;;;;10.10;96279.00;;;;8231805;28;20198;-74
2023/05/13 00:17:52;;;;;;;5.45;4.88;;;;;10.10;96276.00;;;;8244157;28;20238;-74
2023/05/13 00:21:58;;;;;;;8.15;4.72;;;;;10.10;96280.00;;;;8237387;28;20199;-74
2023/05/13 00:26:17;;;;;;;7.03;5.07;;;;;10.10;96284.00;;;;8235091;28;20284;-74
2023/05/13 00:30:20;;;;;;;7.63;4.85;;;;;10.10;96283.00;;;;8232211;28;20215;-73
2023/05/13 00:34:29;;;;;;;7.82;4.55;;;;;10.10;96285.00;;;;8257449;28;20211;-74
2023/05/13 00:38:32;;;;;;;6.10;4.47;;;;;10.10;96289.00;;;;8235708;28;20641;-74
2023/05/13 00:42:37;;;;;;;4.78;4.20;;;;;10.10;96278.00;;;;8238941;28;20203;-74
2023/05/13 00:46:40;;;;;;;7.30;4.80;;;;;10.20;96285.00;;;;8241736;28;20282;-73
2023/05/13 00:50:43;;;;;;;6.10;5.13;;;;;10.20;96286.00;;;;8233037;28;20200;-73
2023/05/13 00:54:46;;;;;;;6.28;4.60;;;;;10.20;96278.00;;;;8237859;28;20282;-73
2023/05/13 00:58:52;;;;;;;6.88;4.78;;;;;10.20;96286.00;;;;8236823;28;20228;-73
2023/05/13 01:03:02;;;;;;;5.85;5.22;;;;;10.20;96273.00;;;;8239129;28;20280;-75
2023/05/13 01:07:14;;;;;;;7.43;4.95;;;;;10.30;96287.00;;;;8238101;28;20248;-74
2023/05/13 01:11:25;;;;;;;6.68;4.88;;;;;10.30;96287.00;;;;8235294;28;20225;-74
2023/05/13 01:15:31;;;;;;;7.30;5.25;;;;;10.30;96293.00;;;;8238621;28;20297;-74
2023/05/13 01:19:41;;;;;;;6.30;5.00;;;;;10.30;96300.00;;;;8233790;28;20199;-73
2023/05/13 01:23:48;;;;;;;7.10;5.53;;;;;10.30;96289.00;;;;8233026;28;20203;-73
2023/05/13 01:27:52;;;;;;;6.15;5.55;;;;;10.30;96290.00;;;;8240995;28;20711;-75
2023/05/13 01:31:56;;;;;;;5.50;4.85;;;;;10.20;96286.00;;;;8240519;28;20203;-72
2023/05/13 01:36:01;;;;;;;6.40;5.22;;;;;10.30;96291.00;;;;8241880;28;20195;-74
2023/05/13 01:40:07;;;;;;;6.30;5.45;;;;;10.30;96288.00;;;;8239234;28;20203;-74
2023/05/13 01:44:31;;;;;;;7.82;5.00;;;;;10.30;96291.00;;;;8233222;28;20234;-74
2023/05/13 01:48:38;;;;;;;7.13;4.80;;;;;10.30;96290.00;;;;8245430;28;20317;-74
2023/05/13 01:52:44;;;;;;;6.78;5.45;;;;;10.30;96287.00;;;;8236414;28;20206;-73
2023/05/13 01:56:51;;;;;;;7.10;5.32;;;;;10.30;96290.00;;;;8236707;28;20209;-71
2023/05/13 02:00:54;;;;;;;6.50;4.65;;;;;10.30;96285.00;;;;8230019;28;20205;-75
2023/05/13 02:05:00;;;;;;;8.77;6.07;;;;;10.30;96295.00;;;;8238090;28;20640;-75
2023/05/13 02:09:04;;;;;;;7.65;5.10;;;;;10.30;96287.00;;;;8239568;28;20316;-74
2023/05/13 02:13:11;;;;;;;6.55;5.38;;;;;10.30;96290.00;;;;8233679;28;20616;-73
2023/05/13 02:17:14;;;;;;;7.65;5.80;;;;;10.30;96292.00;;;;8233661;28;20201;-74
2023/05/13 02:21:18;;;;;;;9.77;5.40;;;;;10.30;96287.00;;;;8234408;28;20204;-73
2023/05/13 02:25:26;;;;;;;7.90;5.35;;;;;10.30;96298.00;;;;8222622;28;20210;-74
2023/05/13 02:29:30;;;;;;;7.95;5.22;;;;;10.30;96295.00;;;;8237199;28;20215;-74
2023/05/13 02:33:34;;;;;;;7.30;6.00;;;;;10.30;96288.00;;;;8240613;28;20198;-73
2023/05/13 02:37:37;;;;;;;8.27;5.63;;;;;10.30;96284.00;;;;8225377;28;20260;-75
2023/05/13 02:41:43;;;;;;;6.97;5.75;;;;;10.30;96286.00;;;;8234247;28;20221;-74
2023/05/13 02:45:53;;;;;;;8.55;7.05;;;;;10.30;96289.00;;;;8234013;28;20197;-74
2023/05/13 02:49:56;;;;;;;8.40;6.30;;;;;10.30;96290.00;;;;8243810;28;20311;-75
2023/05/13 02:53:59;;;;;;;8.15;6.35;;;;;10.30;96288.00;;;;8237230;28;20209;-75
2023/05/13 02:58:03;;;;;;;8.85;6.20;;;;;10.30;96288.00;;;;8235878;28;20203;-76
2023/05/13 03:02:08;;;;;;;11.70;6.28;;;;;10.40;96283.00;;;;8251625;22;20250;-77
2023/05/13 03:06:14;;;;;;;8.55;6.35;;;;;10.40;96286.00;;;;8176021;28;20200;-75
2023/05/13 03:10:17;;;;;;;10.80;6.32;;;;;10.40;96303.00;;;;8187308;28;20842;-79
2023/05/13 03:14:22;;;;;;;6.82;5.53;;;;;10.40;96297.00;;;;8185602;28;20670;-78
2023/05/13 03:18:30;;;;;;;8.75;5.93;;;;;10.40;96297.00;;;;8188019;28;20204;-77
2023/05/13 03:22:33;;;;;;;9.60;5.90;;;;;10.40;96298.00;;;;8188338;29;20208;-76
2023/05/13 03:26:36;;;;;;;6.90;5.80;;;;;10.40;96300.00;;;;8191697;28;20218;-75
2023/05/13 03:30:40;;;;;;;6.93;5.75;;;;;10.40;96305.00;;;;8192584;28;20226;-76
2023/05/13 03:34:45;;;;;;;7.22;6.00;;;;;10.40;96302.00;;;;8191835;29;20212;-75
2023/05/13 03:38:52;;;;;;;8.70;6.53;;;;;10.40;96307.00;;;;8191921;28;20981;-76
2023/05/13 03:43:01;;;;;;;8.48;6.80;;;;;10.40;96303.00;;;;8191211;28;20270;-76
2023/05/13 03:47:04;;;;;;;7.85;5.95;;;;;10.40;96306.00;;;;8188690;28;20259;-74
2023/05/13 03:51:09;;;;;;;8.40;6.60;;;;;10.40;96312.00;;;;8191853;28;20228;-75
2023/05/13 03:55:13;;;;;;;7.70;6.15;;;;;10.50;96308.00;;;;8192277;29;20204;-76
2023/05/13 03:59:19;;;;;;;7.03;6.07;;;;;10.50;96314.00;;;;8185634;28;20235;-76
2023/05/13 04:03:22;;;;;;;9.25;6.38;;;;;10.50;96315.00;;;;8182759;28;20238;-74
2023/05/13 04:07:27;;;;;;;8.02;6.30;;;;;10.50;96311.00;;;;8187965;29;20235;-76
2023/05/13 04:11:32;;;;;;;8.55;6.32;;;;;10.60;96313.00;;;;8192458;28;20204;-74
2023/05/13 04:15:35;;;;;;;10.80;6.57;;;;;10.60;96322.00;;;;8188205;29;20244;-76
2023/05/13 04:19:38;;;;;;;9.32;6.60;;;;;10.70;96321.00;;;;8189293;28;20199;-75
2023/05/13 04:23:43;;;;;;;8.93;6.65;;;;;10.70;96319.00;;;;8184646;28;20208;-77
2023/05/13 04:27:46;;;;;;;9.73;6.55;;;;;10.70;96325.00;;;;8190608;28;20208;-76
2023/05/13 04:31:56;;;;;;;7.93;6.80;;;;;10.70;96325.00;;;;8185349;29;20242;-76
2023/05/13 04:35:59;;;;;;;9.13;6.30;;;;;10.80;96331.00;;;;8188269;28;20207;-76
2023/05/13 04:40:05;;;;;;;9.50;6.90;;;;;10.80;96330.00;;;;8188168;28;20210;-72
2023/05/13 04:44:10;;;;;;;7.15;6.32;;;;;10.90;96330.00;;;;8187948;29;20208;-75
2023/05/13 04:48:13;;;;;;;10.00;6.85;;;;;10.90;96337.00;;;;8188322;28;20232;-74
2023/05/13 04:52:16;;;;;;;11.50;7.65;;;;;11.00;96338.00;;;;8187173;29;20263;-75
2023/05/13 04:56:21;;;;;;;10.32;7.18;;;;;11.00;96341.00;;;;8186857;28;20203;-73
2023/05/13 05:00:24;;;;;;;12.38;8.05;;;;;11.10;96331.00;;;;8186970;28;20329;-75
2023/05/13 05:04:28;;;;;;;10.35;7.95;;;;;11.20;96336.00;;;;8191215;28;20235;-75
2023/05/13 05:08:31;;;;;;;9.60;7.15;;;;;11.20;96342.00;;;;8188162;28;20322;-76
2023/05/13 05:12:36;;;;;;;9.07;7.47;;;;;11.30;96342.00;;;;8188993;29;20716;-75
2023/05/13 05:16:43;;;;;;;11.23;7.68;;;;;11.40;96353.00;;;;8181159;28;20852;-75
2023/05/13 05:20:48;;;;;;;10.05;7.95;;;;;11.50;96358.00;;;;8189124;28;20201;-74
2023/05/13 05:24:51;;;;;;;11.20;7.25;;;;;11.60;96359.00;;;;8182103;28;20210;-75
2023/05/13 05:28:58;;;;;;;10.90;7.47;;;;;11.70;96357.00;;;;8188472;28;20282;-72
2023/05/13 05:33:03;;;;;;;11.05;7.28;;;;;11.80;96362.00;;;;8184236;29;20204;-76
2023/05/13 05:37:11;;;;;;;10.68;7.50;;;;;11.90;96374.00;;;;8186111;28;20284;-74
2023/05/13 05:41:14;;;;;;;9.60;6.95;;;;;11.90;96372.00;;;;8187077;28;20231;-72
2023/05/13 05:45:20;;;;;;;11.80;7.05;;;;;11.90;96377.00;;;;8180021;28;20247;-74
2023/05/13 05:49:24;;;;;;;12.50;7.43;;;;;12.00;96370.00;;;;8181864;29;20236;-74
2023/05/13 05:53:30;;;;;;;9.45;6.68;;;;;12.00;96371.00;;;;8183265;28;20203;-74
2023/05/13 05:57:33;;;;;;;8.18;7.00;;;;;12.10;96372.00;;;;8211521;28;20286;-75
2023/05/13 06:01:38;;;;;;;10.52;6.85;;;;;12.20;96366.00;;;;8212832;28;20230;-75
2023/05/13 06:05:41;;;;;;;11.80;7.82;;;;;12.20;96368.00;;;;8207554;28;20199;-76
2023/05/13 06:09:46;;;;;;;9.43;6.40;;;;;12.30;96374.00;;;;8210837;28;20226;-76
2023/05/13 06:13:50;;;;;;;9.45;6.55;;;;;12.50;96371.00;;;;8198537;28;20254;-75
2023/05/13 06:17:54;;;;;;;9.85;7.10;;;;;12.70;96369.00;;;;8211757;28;20648;-74
2023/05/13 06:21:58;;;;;;;9.02;6.75;;;;;13.00;96374.00;;;;8212225;28;20196;-74
2023/05/13 06:26:02;;;;;;;10.27;5.60;;;;;13.10;96372.00;;;;8216856;28;20203;-77
2023/05/13 06:30:09;;;;;;;8.52;6.00;;;;;13.20;96371.00;;;;8220551;28;20750;-76
2023/05/13 06:34:16;;;;;;;6.82;5.72;;;;;13.20;96381.00;;;;8220337;28;20207;-75
2023/05/13 06:38:22;;;;;;;10.27;6.13;;;;;13.20;96375.00;;;;8212680;28;20221;-74
2023/05/13 06:42:26;;;;;;;6.80;5.60;;;;;13.20;96381.00;;;;8219064;28;20211;-75
2023/05/13 06:46:29;;;;;;;7.63;6.18;;;;;13.20;96387.00;;;;8218981;28;20711;-75
2023/05/13 06:50:34;;;;;;;6.43;5.72;;;;;13.20;96376.00;;;;8218380;28;20234;-77
2023/05/13 06:54:39;;;;;;;14.70;6.25;;;;;13.30;96382.00;;;;8219481;28;20261;-75
2023/05/13 06:58:44;;;;;;;7.50;5.80;;;;;13.40;96376.00;;;;8215734;28;20247;-77
2023/05/13 07:02:47;;;;;;;8.88;5.72;;;;;13.50;96389.00;;;;8443409;23;20242;-73
2023/05/13 07:06:53;;;;;;;7.38;5.22;;;;;13.50;96383.00;;;;8239183;28;20215;-75
2023/05/13 07:10:58;;;;;;;6.35;5.10;;;;;13.60;96386.00;;;;8245546;28;20587;-73
2023/05/13 07:15:01;;;;;;;7.18;5.97;;;;;13.80;96391.00;;;;8255405;28;20265;-74
2023/05/13 07:19:05;;;;;;;6.93;5.13;;;;;13.90;96390.00;;;;8237381;28;20261;-73
2023/05/13 07:23:09;;;;;;;6.10;5.28;;;;;14.00;96389.00;;;;8255691;28;20323;-74
2023/05/13 07:27:14;;;;;;;6.53;4.70;;;;;14.20;96397.00;;;;8255565;28;20226;-74
2023/05/13 07:31:19;;;;;;;5.63;5.10;;;;;14.30;96390.00;;;;8255057;28;20743;-74
2023/05/13 07:35:24;;;;;;;4.50;4.10;;;;;14.50;96390.00;;;;8252628;28;20669;-74
2023/05/13 07:39:33;;;;;;;4.45;4.05;;;;;14.70;96394.00;;;;8251956;28;20211;-74
2023/05/13 07:43:38;;;;;;;9.48;5.85;;;;;14.70;96406.00;;;;8254838;28;20910;-74
2023/05/13 07:47:41;;;;;;;4.47;4.07;;;;;14.70;96407.00;;;;8252898;28;20206;-81
2023/05/13 07:51:49;;;;;;;4.05;3.58;;;;;14.70;96403.00;;;;8258140;28;20238;-82
2023/05/13 07:55:57;;;;;;;4.57;4.18;;;;;14.80;96398.00;;;;8251876;28;20250;-82
2023/05/13 08:00:00;;;;;;;3.90;3.40;;;;;15.00;96409.00;;;;8257079;28;20211;-79
2023/05/13 08:04:03;;;;;;;6.22;3.85;;;;;15.00;96410.00;;;;8257210;28;20252;-79
2023/05/13 08:08:10;;;;;;;3.10;2.90;;;;;15.10;96409.00;;;;8255837;28;20560;-82
2023/05/13 08:12:15;;;;;;;4.03;3.47;;;;;15.40;96405.00;;;;8249540;28;20631;-83
2023/05/13 08:16:18;;;;;;;3.58;3.20;;;;;15.40;96401.00;;;;8232353;28;20211;-82
2023/05/13 08:20:28;;;;;;;3.72;3.08;;;;;15.50;96404.00;;;;8232879;28;20229;-80
2023/05/13 08:24:31;;;;;;;4.40;2.90;;;;;15.70;96404.00;;;;8241201;28;20243;-80
2023/05/13 08:28:38;;;;;;;3.45;3.20;;;;;15.80;96403.00;;;;8246114;28;20681;-81
2023/05/13 08:32:42;;;;;;;3.00;2.80;;;;;15.70;96415.00;;;;8251879;28;20231;-66
2023/05/13 08:36:45;;;;;;;2.95;2.67;;;;;15.80;96417.00;;;;8249239;28;20199;-63
2023/05/13 08:40:49;;;;;;;2.83;2.60;;;;;15.90;96409.00;;;;8245960;28;20213;-69
2023/05/13 08:45:00;;;;;;;2.72;2.53;;;;;16.00;96405.00;;;;8243492;28;20237;-64
2023/05/13 08:49:03;;;;;;;3.25;2.63;;;;;16.30;96411.00;;;;8252075;28;20199;-63
2023/05/13 08:53:07;;;;;;;2.70;2.47;;;;;16.60;96419.00;;;;8249661;28;20242;-63
2023/05/13 08:57:10;;;;;;;2.53;2.38;;;;;16.70;96418.00;;;;8239112;28;20195;-63
2023/05/13 09:01:15;;;;;;;2.30;2.20;;;;;17.10;96409.00;;;;8250155;28;20199;-80
2023/05/13 09:05:19;;;;;;;2.20;2.10;;;;;17.40;96415.00;;;;8700365;22;20307;-72
2023/05/13 09:09:40;;;;;;;2.35;2.25;;;;;17.50;96408.00;;;;8310955;23;20657;-70
2023/05/13 09:13:44;;;;;;;2.75;2.13;;;;;17.40;96409.00;;;;8273834;28;20477;-66
2023/05/13 09:17:56;;;;;;;1.88;1.88;;;;;17.50;96414.00;;;;8282126;28;20202;-82
2023/05/13 09:22:01;;;;;;;3.40;2.00;;;;;17.40;96416.00;;;;8277204;28;20194;-75
2023/05/13 09:26:05;;;;;;;1.73;1.73;;;;;17.30;96417.00;;;;8279123;28;20241;-75
2023/05/13 09:30:12;;;;;;;2.00;1.90;;;;;17.20;96412.00;;;;8282797;28;20218;-78
2023/05/13 09:34:26;;;;;;;3.40;2.10;;;;;17.10;96421.00;;;;8282643;28;20647;-77
2023/05/13 09:38:30;;;;;;;6.00;2.35;;;;;17.00;96420.00;;;;8280619;28;20579;-75
2023/05/13 09:42:34;;;;;;;1.98;1.88;;;;;17.00;96426.00;;;;8276925;28;20236;-79
2023/05/13 09:46:37;;;;;;;2.00;1.80;;;;;16.80;96420.00;;;;8273037;28;20199;-77
2023/05/13 09:50:50;;;;;;;2.35;2.25;;;;;16.60;96417.00;;;;8278589;28;20223;-83
2023/05/13 09:54:56;;;;;;;2.08;1.98;;;;;16.70;96419.00;;;;8267581;28;20210;-73
2023/05/13 09:59:01;;;;;;;1.90;1.80;;;;;16.90;96409.00;;;;8270956;28;20261;-74
2023/05/13 10:03:05;;;;;;;2.42;2.33;;;;;16.80;96414.00;;;;8283002;28;20639;-71
2023/05/13 10:07:23;;;;;;;2.42;2.33;;;;;16.70;96417.00;;;;8257607;28;20238;-77
2023/05/13 10:11:28;;;;;;;2.40;2.20;;;;;16.50;96418.00;;;;8237381;28;20349;-73
2023/05/13 10:15:33;;;;;;;2.00;1.90;;;;;16.40;96419.00;;;;8240421;28;20257;-75
2023/05/13 10:19:39;;;;;;;1.90;1.80;;;;;16.30;96418.00;;;;8240355;28;20211;-75
2023/05/13 10:23:45;;;;;;;2.05;1.95;;;;;16.30;96423.00;;;;8244095;28;20194;-72
2023/05/13 10:27:51;;;;;;;2.78;2.38;;;;;16.10;96421.00;;;;8246629;28;20210;-72
2023/05/13 10:31:57;;;;;;;2.60;2.40;;;;;16.00;96413.00;;;;8236254;28;20218;-74
2023/05/13 10:36:17;;;;;;;1.70;1.70;;;;;16.10;96417.00;;;;8236678;28;20820;-77
2023/05/13 10:40:55;;;;;;;1.83;1.73;;;;;16.20;96413.00;;;;8247470;28;20213;-76
2023/05/13 10:44:58;;;;;;;2.10;2.00;;;;;16.10;96420.00;;;;8234419;28;20295;-72
2023/05/13 10:49:05;;;;;;;1.80;1.70;;;;;16.10;96415.00;;;;8242145;28;20199;-71
2023/05/13 10:53:19;;;;;;;2.25;2.10;;;;;16.20;96415.00;;;;8244371;28;20265;-72
2023/05/13 10:57:30;;;;;;;1.92;1.83;;;;;16.30;96419.00;;;;8240292;28;20665;-71
2023/05/13 11:01:36;;;;;;;1.98;1.88;;;;;16.40;96418.00;;;;8242967;28;20662;-73
2023/05/13 11:05:41;;;;;;;1.48;1.48;;;;;16.30;96424.00;;;;8246379;28;20239;-76
2023/05/13 11:09:51;;;;;;;1.85;1.75;;;;;16.30;96420.00;;;;8248394;28;20238;-73
2023/05/13 11:14:05;;;;;;;1.83;1.73;;;;;16.50;96424.00;;;;8249689;28;20237;-77
2023/05/13 11:18:15;;;;;;;3.67;1.70;;;;;16.50;96428.00;;;;8245984;28;20326;-76
2023/05/13 11:22:23;;;;;;;1.60;1.50;;;;;16.70;96428.00;;;;8249127;28;20238;-77
2023/05/13 11:26:41;;;;;;;2.38;1.80;;;;;16.90;96424.00;;;;8249628;28;20202;-75
2023/05/13 11:30:57;;;;;;;2.25;1.88;;;;;17.00;96426.00;;;;8244868;28;20281;-76
2023/05/13 11:35:03;;;;;;;1.70;1.70;;;;;17.30;96429.00;;;;8250270;28;20215;-76
2023/05/13 11:39:11;;;;;;;1.90;1.90;;;;;17.40;96421.00;;;;8246828;28;20560;-75
2023/05/13 11:43:20;;;;;;;1.80;1.80;;;;;17.40;96414.00;;;;8247929;28;20266;-76
2023/05/13 11:47:27;;;;;;;1.85;1.75;;;;;17.70;96426.00;;;;8247106;28;20203;-76
2023/05/13 11:51:34;;;;;;;1.67;1.58;;;;;18.20;96422.00;;;;8243570;28;20278;-75
2023/05/13 11:55:43;;;;;;;1.70;1.70;;;;;19.00;96426.00;;;;8246133;28;20230;-75
2023/05/13 11:59:53;;;;;;;3.05;1.83;;;;;19.30;96419.00;;;;8246754;28;20203;-75
2023/05/13 12:04:02;;;;;;;1.60;1.50;;;;;19.90;96426.00;;;;8248943;28;20710;-75
2023/05/13 12:08:08;;;;;;;1.50;1.40;;;;;20.00;96432.00;;;;8252964;28;20261;-74
2023/05/13 12:12:11;;;;;;;1.73;1.65;;;;;20.00;96434.00;;;;8253480;28;20223;-76
2023/05/13 12:16:19;;;;;;;2.88;1.58;;;;;20.10;96432.00;;;;8250502;28;20678;-75
2023/05/13 12:20:26;;;;;;;1.83;1.60;;;;;20.20;96425.00;;;;8252594;28;20202;-77
2023/05/13 12:24:33;;;;;;;1.30;1.30;;;;;20.30;96425.00;;;;8248602;28;20207;-75
2023/05/13 12:28:39;;;;;;;1.60;1.60;;;;;20.30;96436.00;;;;8240111;28;20203;-74
2023/05/13 12:32:44;;;;;;;1.60;1.50;;;;;20.40;96426.00;;;;8245850;28;20679;-76
2023/05/13 12:36:56;;;;;;;5.43;1.77;;;;;20.00;96426.00;;;;8237882;28;20200;-75
2023/05/13 12:41:12;;;;;;;1.75;1.75;;;;;20.10;96429.00;;;;8241561;28;20229;-76
2023/05/13 12:45:16;;;;;;;1.63;1.52;;;;;20.00;96430.00;;;;8247158;28;20194;-77
2023/05/13 12:49:20;;;;;;;1.38;1.38;;;;;20.10;96425.00;;;;8243909;28;20282;-76
2023/05/13 12:53:26;;;;;;;1.90;1.80;;;;;19.90;96428.00;;;;8247650;28;20257;-77
2023/05/13 12:57:29;;;;;;;1.80;1.77;;;;;19.50;96433.00;;;;8246687;28;20818;-77
2023/05/13 13:01:34;;;;;;;1.83;1.73;;;;;19.10;96420.00;;;;8239162;28;20635;-77
2023/05/13 13:05:37;;;;;;;1.50;1.50;;;;;18.80;96422.00;;;;8260995;28;20235;-77
2023/05/13 13:09:42;;;;;;;1.50;1.50;;;;;18.80;96429.00;;;;8253009;28;20356;-76
2023/05/13 13:13:45;;;;;;;1.55;1.45;;;;;19.00;96428.00;;;;8250166;28;20235;-76
2023/05/13 13:17:54;;;;;;;2.90;1.48;;;;;19.10;96432.00;;;;8239061;28;20583;-76
2023/05/13 13:22:00;;;;;;;1.50;1.40;;;;;19.20;96429.00;;;;8247224;28;20203;-76
2023/05/13 13:26:05;;;;;;;1.73;1.63;;;;;19.30;96426.00;;;;8250324;28;20206;-76
2023/05/13 13:30:12;;;;;;;1.73;1.73;;;;;19.20;96427.00;;;;8252563;28;20253;-76
2023/05/13 13:34:15;;;;;;;1.50;1.50;;;;;19.30;96420.00;;;;8251724;28;20226;-76
2023/05/13 13:38:18;;;;;;;2.47;1.48;;;;;19.20;96424.00;;;;8249020;28;20809;-76
2023/05/13 13:42:25;;;;;;;1.52;1.42;;;;;19.20;96423.00;;;;8247819;28;20203;-76
2023/05/13 13:46:47;;;;;;;1.75;1.67;;;;;19.20;96418.00;;;;8248724;28;20218;-76
2023/05/13 13:50:51;;;;;;;1.35;1.35;;;;;18.90;96412.00;;;;8245554;28;20230;-76
2023/05/13 13:54:56;;;;;;;1.63;1.52;;;;;18.90;96414.00;;;;8240180;28;20233;-76
2023/05/13 13:59:01;;;;;;;1.40;1.33;;;;;18.80;96418.00;;;;8251318;28;20203;-76
2023/05/13 14:03:04;;;;;;;16.30;1.60;;;;;18.70;96405.00;;;;8245595;28;20207;-76
2023/05/13 14:07:10;;;;;;;1.60;1.25;;;;;18.70;96417.00;;;;8241341;28;20362;-76
2023/05/13 14:11:14;;;;;;;1.30;1.30;;;;;18.70;96410.00;;;;8242919;28;20199;-76
2023/05/13 14:15:27;;;;;;;2.25;1.40;;;;;18.80;96409.00;;;;8241849;28;20214;-76
2023/05/13 14:19:32;;;;;;;1.55;1.45;;;;;18.80;96403.00;;;;8247782;28;20199;-76
2023/05/13 14:23:37;;;;;;;1.17;1.17;;;;;18.70;96392.00;;;;8243017;28;20561;-77
2023/05/13 14:27:40;;;;;;;2.55;1.35;;;;;18.70;96398.00;;;;8244024;28;20253;-77
2023/05/13 14:31:45;;;;;;;1.45;1.45;;;;;18.80;96397.00;;;;8247693;28;20303;-73
2023/05/13 14:35:56;;;;;;;2.15;2.05;;;;;18.80;96405.00;;;;8249746;28;20245;-79
2023/05/13 14:40:05;;;;;;;1.80;1.70;;;;;18.90;96405.00;;;;8241361;28;20753;-78
2023/05/13 14:44:08;;;;;;;1.60;1.60;;;;;18.90;96406.00;;;;8259496;28;20222;-78
2023/05/13 14:48:13;;;;;;;3.58;1.80;;;;;18.70;96402.00;;;;8251868;28;20202;-78
2023/05/13 14:52:16;;;;;;;1.90;1.80;;;;;18.70;96406.00;;;;8245225;28;20244;-79
2023/05/13 14:56:20;;;;;;;1.95;1.85;;;;;18.50;96412.00;;;;8243075;28;20207;-78
2023/05/13 15:00:26;;;;;;;1.80;1.70;;;;;18.40;96397.00;;;;8244124;28;20203;-79
2023/05/13 15:04:31;;;;;;;2.17;1.98;;;;;18.40;96399.00;;;;8247826;28;20716;-77
2023/05/13 15:08:36;;;;;;;1.80;1.80;;;;;18.30;96404.00;;;;8241336;28;20233;-78
2023/05/13 15:12:40;;;;;;;2.30;2.20;;;;;18.20;96394.00;;;;8248710;28;20265;-77
2023/05/13 15:16:43;;;;;;;2.97;1.90;;;;;18.20;96394.00;;;;8247535;28;20203;-72
2023/05/13 15:20:51;;;;;;;2.40;2.20;;;;;18.10;96401.00;;;;8252877;28;20746;-72
2023/05/13 15:24:54;;;;;;;2.35;2.15;;;;;17.90;96396.00;;;;8246838;28;20195;-72
2023/05/13 15:28:57;;;;;;;1.77;1.77;;;;;17.90;96396.00;;;;8248064;28;20682;-71
2023/05/13 15:33:00;;;;;;;2.00;1.90;;;;;17.80;96389.00;;;;8250010;28;20230;-74
2023/05/13 15:37:10;;;;;;;2.50;2.38;;;;;17.80;96391.00;;;;8251162;28;20262;-69
2023/05/13 15:41:14;;;;;;;3.95;2.30;;;;;17.80;96388.00;;;;8254029;28;20206;-72
2023/05/13 15:45:19;;;;;;;2.95;2.75;;;;;17.70;96373.00;;;;8249378;28;20199;-74
2023/05/13 15:49:26;;;;;;;2.88;2.67;;;;;17.70;96374.00;;;;8243630;28;20250;-74
2023/05/13 15:53:33;;;;;;;5.68;2.65;;;;;17.70;96378.00;;;;8246662;28;20222;-79
2023/05/13 15:57:38;;;;;;;3.05;2.85;;;;;17.70;96378.00;;;;8244741;28;20244;-69
2023/05/13 16:01:45;;;;;;;3.03;2.83;;;;;17.70;96374.00;;;;8242912;28;20757;-73
2023/05/13 16:05:49;;;;;;;2.95;2.75;;;;;17.60;96370.00;;;;8241632;28;20224;-73
2023/05/13 16:09:57;;;;;;;3.20;2.95;;;;;17.60;96369.00;;;;8241730;28;20208;-66
2023/05/13 16:14:00;;;;;;;5.35;3.03;;;;;17.60;96365.00;;;;8244017;28;20227;-66
2023/05/13 16:18:05;;;;;;;3.55;3.08;;;;;17.50;96352.00;;;;8248482;28;20857;-66
2023/05/13 16:22:34;;;;;;;3.75;3.00;;;;;17.40;96359.00;;;;8253826;28;20740;-66
2023/05/13 16:26:40;;;;;;;3.50;3.20;;;;;17.40;96351.00;;;;8237605;28;20195;-66
2023/05/13 16:30:45;;;;;;;3.42;3.20;;;;;17.60;96359.00;;;;8242345;28;20210;-65
2023/05/13 16:34:51;;;;;;;3.67;3.38;;;;;18.20;96346.00;;;;8246607;28;20281;-69
2023/05/13 16:38:56;;;;;;;4.18;3.35;;;;;18.60;96356.00;;;;8252875;28;20726;-68
2023/05/13 16:43:01;;;;;;;4.68;3.60;;;;;18.90;96352.00;;;;8254958;28;20202;-66
2023/05/13 16:47:07;;;;;;;4.78;3.40;;;;;18.50;96345.00;;;;8247920;28;20274;-66
2023/05/13 16:51:10;;;;;;;3.95;3.65;;;;;18.70;96344.00;;;;8247927;28;20328;-65
2023/05/13 16:55:16;;;;;;;4.45;4.05;;;;;19.20;96355.00;;;;8248344;28;20222;-66
2023/05/13 16:59:21;;;;;;;5.53;5.03;;;;;18.60;96348.00;;;;8251940;28;20214;-68
2023/05/13 17:03:24;;;;;;;4.78;4.28;;;;;17.90;96348.00;;;;8248005;28;20206;-65
2023/05/13 17:07:28;;;;;;;7.97;6.15;;;;;17.30;96363.00;;;;8252749;28;20236;-66
2023/05/13 17:11:36;;;;;;;6.47;4.97;;;;;16.80;96351.00;;;;8247078;28;20202;-66
2023/05/13 17:15:41;;;;;;;11.23;5.72;;;;;16.50;96359.00;;;;8245143;28;20285;-66
2023/05/13 17:19:46;;;;;;;7.25;6.18;;;;;16.30;96354.00;;;;8239678;28;20210;-66
2023/05/13 17:23:52;;;;;;;8.15;6.60;;;;;16.40;96361.00;;;;8247498;28;20236;-66
2023/05/13 17:27:56;;;;;;;6.03;5.35;;;;;17.10;96353.00;;;;8251856;28;20205;-67
2023/05/13 17:32:00;;;;;;;7.20;5.80;;;;;17.80;96363.00;;;;8231624;28;20664;-67
2023/05/13 17:36:04;;;;;;;7.20;6.40;;;;;18.10;96364.00;;;;8252661;28;21286;-66
2023/05/13 17:40:13;;;;;;;8.13;5.68;;;;;18.10;96362.00;;;;8242653;28;20344;-66
2023/05/13 17:44:16;;;;;;;9.32;6.82;;;;;18.00;96370.00;;;;8252089;28;20246;-66
2023/05/13 17:48:23;;;;;;;10.00;6.25;;;;;17.90;96366.00;;;;8235008;28;20301;-66
2023/05/13 17:52:30;;;;;;;9.38;7.10;;;;;17.60;96372.00;;;;8244533;28;20203;-66
2023/05/13 17:56:34;;;;;;;9.07;7.20;;;;;16.80;96370.00;;;;8243677;28;20601;-66
2023/05/13 18:00:39;;;;;;;12.57;7.60;;;;;16.10;96374.00;;;;8243661;28;20199;-66
2023/05/13 18:04:46;;;;;;;10.02;7.03;;;;;15.60;96369.00;;;;8250684;28;20573;-67
2023/05/13 18:08:49;;;;;;;11.52;8.60;;;;;15.30;96379.00;;;;8246083;28;20237;-67
2023/05/13 18:12:52;;;;;;;9.25;7.25;;;;;15.00;96381.00;;;;8244693;28;20211;-66
2023/05/13 18:16:57;;;;;;;12.38;8.32;;;;;14.80;96384.00;;;;8234815;28;20241;-66
2023/05/13 18:21:10;;;;;;;10.07;7.45;;;;;14.70;96387.00;;;;8243372;28;20203;-66
2023/05/13 18:25:16;;;;;;;9.13;7.25;;;;;14.50;96384.00;;;;8240993;28;20238;-67
2023/05/13 18:29:23;;;;;;;9.13;6.75;;;;;14.40;96394.00;;;;8236639;28;20253;-66
2023/05/13 18:33:29;;;;;;;11.02;8.35;;;;;14.30;96387.00;;;;8241886;28;20318;-66
2023/05/13 18:37:35;;;;;;;10.75;7.50;;;;;14.20;96394.00;;;;8243889;28;20202;-67
2023/05/13 18:41:38;;;;;;;11.73;8.07;;;;;14.10;96387.00;;;;8243021;28;20269;-67
2023/05/13 18:45:42;;;;;;;11.32;7.93;;;;;14.00;96386.00;;;;8244079;28;20203;-67
2023/05/13 18:49:45;;;;;;;12.73;8.73;;;;;14.00;96388.00;;;;8245386;28;20215;-67
2023/05/13 18:53:51;;;;;;;9.85;7.18;;;;;13.90;96393.00;;;;8248916;28;20226;-66
2023/05/13 18:57:54;;;;;;;11.68;8.27;;;;;14.00;96402.00;;;;8244766;28;20541;-67
2023/05/13 19:02:03;;;;;;;15.10;7.82;;;;;14.00;96402.00;;;;8248909;28;20202;-66
2023/05/13 19:06:09;;;;;;;10.52;8.15;;;;;13.90;96400.00;;;;8240616;28;20214;-66
2023/05/13 19:10:18;;;;;;;11.57;8.20;;;;;13.80;96415.00;;;;8245634;28;20199;-66
2023/05/13 19:14:21;;;;;;;10.13;7.88;;;;;13.80;96410.00;;;;8243985;28;20309;-66
2023/05/13 19:18:26;;;;;;;10.30;8.13;;;;;13.80;96421.00;;;;8243247;28;20237;-67
2023/05/13 19:22:30;;;;;;;9.93;7.72;;;;;13.80;96417.00;;;;8244737;28;20203;-67
2023/05/13 19:26:35;;;;;;;9.13;7.50;;;;;13.70;96414.00;;;;8238157;28;20195;-67
2023/05/13 19:30:39;;;;;;;12.63;8.30;;;;;13.70;96422.00;;;;8242421;28;20203;-67
2023/05/13 19:34:43;;;;;;;13.65;8.05;;;;;13.60;96422.00;;;;8247428;28;20684;-67
2023/05/13 19:38:48;;;;;;;8.95;7.65;;;;;13.60;96418.00;;;;8240277;28;20818;-67
2023/05/13 19:42:55;;;;;;;8.77;7.70;;;;;13.50;96419.00;;;;8246491;28;20229;-66
2023/05/13 19:46:58;;;;;;;11.80;8.15;;;;;13.40;96413.00;;;;8249853;28;20202;-67
2023/05/13 19:51:03;;;;;;;13.30;8.13;;;;;13.40;96423.00;;;;8248077;28;20214;-67
2023/05/13 19:55:13;;;;;;;13.02;8.93;;;;;13.40;96414.00;;;;8244241;28;20326;-68
2023/05/13 19:59:18;;;;;;;12.70;9.00;;;;;13.30;96415.00;;;;8241573;28;20217;-66
2023/05/13 20:03:23;;;;;;;12.57;8.70;;;;;13.30;96424.00;;;;8246818;28;20273;-67
2023/05/13 20:07:27;;;;;;;10.85;8.45;;;;;13.20;96417.00;;;;8247453;28;20234;-67
2023/05/13 20:11:30;;;;;;;12.82;8.27;;;;;13.20;96422.00;;;;8249330;28;20773;-66
2023/05/13 20:15:37;;;;;;;13.57;8.15;;;;;13.20;96425.00;;;;8246241;28;20231;-67
2023/05/13 20:19:43;;;;;;;11.45;8.50;;;;;13.20;96422.00;;;;8252903;28;20202;-67
2023/05/13 20:23:46;;;;;;;18.35;11.05;;;;;13.20;96424.00;;;;8244015;28;20277;-67
2023/05/13 20:27:52;;;;;;;13.77;8.45;;;;;13.20;96425.00;;;;8252494;28;20620;-67